sensor_id;sensor_type;location;lat;lon;timestamp;P1;durP1;ratioP1;P2;durP2;ratioP2
3922;SDS011;1976;51.694;6.256;2023-10-09T00:01:25;26.23;;;14.20;;
3922;SDS011;1976;51.694;6.256;2023-10-09T00:03:51;36.83;;;15.07;;
3922;SDS011;1976;51.694;6.256;2023-10-09T00:06:21;24.87;;;13.17;;
3922;SDS011;1976;51.694;6.256;2023-10-09T00:09:02;21.73;;;12.50;;
3922;SDS011;1976;51.694;6.256;2023-10-09T00:11:42;24.87;;;12.67;;
3922;SDS011;1976;51.694;6.256;2023-10-09T00:14:10;30.80;;;14.50;;
3922;SDS011;1976;51.694;6.256;2023-10-09T00:16:36;27.20;;;13.63;;
3922;SDS011;1976;51.694;6.256;2023-10-09T00:19:09;28.40;;;13.73;;
3922;SDS011;1976;51.694;6.256;2023-10-09T00:21:44;19.77;;;11.50;;
3922;SDS011;1976;51.694;6.256;2023-10-09T00:24:10;28.37;;;10.53;;
3922;SDS011;1976;51.694;6.256;2023-10-09T00:26:44;25.00;;;12.77;;
3922;SDS011;1976;51.694;6.256;2023-10-09T00:29:14;28.73;;;15.00;;
3922;SDS011;1976;51.694;6.256;2023-10-09T00:31:46;29.07;;;12.70;;
3922;SDS011;1976;51.694;6.256;2023-10-09T00:34:19;25.43;;;13.00;;
3922;SDS011;1976;51.694;6.256;2023-10-09T00:36:47;36.00;;;13.43;;
3922;SDS011;1976;51.694;6.256;2023-10-09T00:39:20;43.40;;;15.30;;
3922;SDS011;1976;51.694;6.256;2023-10-09T00:42:01;30.93;;;15.30;;
3922;SDS011;1976;51.694;6.256;2023-10-09T00:44:28;27.90;;;15.33;;
3922;SDS011;1976;51.694;6.256;2023-10-09T00:47:04;30.53;;;14.57;;
3922;SDS011;1976;51.694;6.256;2023-10-09T00:49:47;35.57;;;14.47;;
3922;SDS011;1976;51.694;6.256;2023-10-09T00:52:23;29.20;;;13.00;;
3922;SDS011;1976;51.694;6.256;2023-10-09T00:54:59;25.90;;;13.93;;
3922;SDS011;1976;51.694;6.256;2023-10-09T00:57:51;26.97;;;13.80;;
3922;SDS011;1976;51.694;6.256;2023-10-09T01:00:25;30.10;;;14.13;;
3922;SDS011;1976;51.694;6.256;2023-10-09T01:02:58;39.07;;;16.53;;
3922;SDS011;1976;51.694;6.256;2023-10-09T01:05:49;25.63;;;15.40;;
3922;SDS011;1976;51.694;6.256;2023-10-09T01:08:23;31.60;;;16.30;;
3922;SDS011;1976;51.694;6.256;2023-10-09T01:10:55;30.70;;;15.70;;
3922;SDS011;1976;51.694;6.256;2023-10-09T01:13:25;34.77;;;17.03;;
3922;SDS011;1976;51.694;6.256;2023-10-09T01:16:07;30.80;;;15.20;;
3922;SDS011;1976;51.694;6.256;2023-10-09T01:18:41;27.03;;;13.83;;
3922;SDS011;1976;51.694;6.256;2023-10-09T01:21:08;36.80;;;16.50;;
3922;SDS011;1976;51.694;6.256;2023-10-09T01:23:43;35.03;;;14.43;;
3922;SDS011;1976;51.694;6.256;2023-10-09T01:28:58;25.40;;;14.00;;
3922;SDS011;1976;51.694;6.256;2023-10-09T01:31:25;26.00;;;13.43;;
3922;SDS011;1976;51.694;6.256;2023-10-09T01:33:51;30.93;;;15.47;;
3922;SDS011;1976;51.694;6.256;2023-10-09T01:36:24;29.80;;;16.83;;
3922;SDS011;1976;51.694;6.256;2023-10-09T01:38:58;30.97;;;16.97;;
3922;SDS011;1976;51.694;6.256;2023-10-09T01:41:33;30.33;;;16.97;;
3922;SDS011;1976;51.694;6.256;2023-10-09T01:43:59;37.33;;;16.10;;
3922;SDS011;1976;51.694;6.256;2023-10-09T01:46:28;35.10;;;16.67;;
3922;SDS011;1976;51.694;6.256;2023-10-09T01:48:53;24.60;;;14.70;;
3922;SDS011;1976;51.694;6.256;2023-10-09T01:51:19;24.47;;;14.90;;
3922;SDS011;1976;51.694;6.256;2023-10-09T01:53:45;27.60;;;15.30;;
3922;SDS011;1976;51.694;6.256;2023-10-09T01:56:22;33.20;;;16.70;;
3922;SDS011;1976;51.694;6.256;2023-10-09T01:58:47;83.27;;;18.03;;
3922;SDS011;1976;51.694;6.256;2023-10-09T02:01:15;25.83;;;15.50;;
3922;SDS011;1976;51.694;6.256;2023-10-09T02:03:40;28.70;;;15.00;;
3922;SDS011;1976;51.694;6.256;2023-10-09T02:06:08;32.07;;;15.37;;
3922;SDS011;1976;51.694;6.256;2023-10-09T02:08:52;25.27;;;15.17;;
3922;SDS011;1976;51.694;6.256;2023-10-09T02:11:18;35.57;;;15.90;;
3922;SDS011;1976;51.694;6.256;2023-10-09T02:13:50;36.17;;;14.80;;
3922;SDS011;1976;51.694;6.256;2023-10-09T02:16:25;30.00;;;14.97;;
3922;SDS011;1976;51.694;6.256;2023-10-09T02:18:54;29.03;;;15.67;;
3922;SDS011;1976;51.694;6.256;2023-10-09T02:21:32;30.40;;;15.03;;
3922;SDS011;1976;51.694;6.256;2023-10-09T02:23:58;25.90;;;14.60;;
3922;SDS011;1976;51.694;6.256;2023-10-09T02:26:31;24.90;;;14.77;;
3922;SDS011;1976;51.694;6.256;2023-10-09T02:29:16;29.00;;;15.20;;
3922;SDS011;1976;51.694;6.256;2023-10-09T02:31:42;28.57;;;14.83;;
3922;SDS011;1976;51.694;6.256;2023-10-09T02:34:11;34.50;;;14.67;;
3922;SDS011;1976;51.694;6.256;2023-10-09T02:36:37;27.93;;;14.40;;
3922;SDS011;1976;51.694;6.256;2023-10-09T02:39:14;25.60;;;13.80;;
3922;SDS011;1976;51.694;6.256;2023-10-09T02:41:52;29.53;;;15.17;;
3922;SDS011;1976;51.694;6.256;2023-10-09T02:44:44;25.20;;;15.30;;
3922;SDS011;1976;51.694;6.256;2023-10-09T02:47:15;28.33;;;14.57;;
3922;SDS011;1976;51.694;6.256;2023-10-09T02:49:54;29.70;;;16.07;;
3922;SDS011;1976;51.694;6.256;2023-10-09T02:52:25;21.20;;;11.40;;
3922;SDS011;1976;51.694;6.256;2023-10-09T02:54:57;27.57;;;15.33;;
3922;SDS011;1976;51.694;6.256;2023-10-09T02:57:32;35.80;;;14.50;;
3922;SDS011;1976;51.694;6.256;2023-10-09T03:00:02;25.23;;;12.37;;
3922;SDS011;1976;51.694;6.256;2023-10-09T03:02:34;26.57;;;12.93;;
3922;SDS011;1976;51.694;6.256;2023-10-09T03:05:05;32.30;;;14.80;;
3922;SDS011;1976;51.694;6.256;2023-10-09T03:07:31;33.90;;;15.27;;
3922;SDS011;1976;51.694;6.256;2023-10-09T03:09:59;59.00;;;17.37;;
3922;SDS011;1976;51.694;6.256;2023-10-09T03:12:24;31.83;;;14.73;;
3922;SDS011;1976;51.694;6.256;2023-10-09T03:14:52;21.33;;;13.20;;
3922;SDS011;1976;51.694;6.256;2023-10-09T03:17:24;20.73;;;13.20;;
3922;SDS011;1976;51.694;6.256;2023-10-09T03:19:49;28.20;;;12.77;;
3922;SDS011;1976;51.694;6.256;2023-10-09T03:22:15;23.30;;;13.50;;
3922;SDS011;1976;51.694;6.256;2023-10-09T03:24:40;26.00;;;13.03;;
3922;SDS011;1976;51.694;6.256;2023-10-09T03:27:14;25.90;;;12.97;;
3922;SDS011;1976;51.694;6.256;2023-10-09T03:29:40;17.00;;;12.00;;
3922;SDS011;1976;51.694;6.256;2023-10-09T03:32:06;31.17;;;14.20;;
3922;SDS011;1976;51.694;6.256;2023-10-09T03:34:34;28.77;;;14.50;;
3922;SDS011;1976;51.694;6.256;2023-10-09T03:36:59;22.83;;;12.07;;
3922;SDS011;1976;51.694;6.256;2023-10-09T03:39:36;21.80;;;12.73;;
3922;SDS011;1976;51.694;6.256;2023-10-09T03:42:06;24.10;;;12.70;;
3922;SDS011;1976;51.694;6.256;2023-10-09T03:44:36;29.83;;;15.00;;
3922;SDS011;1976;51.694;6.256;2023-10-09T03:47:06;17.83;;;10.93;;
3922;SDS011;1976;51.694;6.256;2023-10-09T03:49:35;22.30;;;11.07;;
3922;SDS011;1976;51.694;6.256;2023-10-09T03:52:04;24.40;;;13.60;;
3922;SDS011;1976;51.694;6.256;2023-10-09T03:54:32;31.03;;;12.13;;
3922;SDS011;1976;51.694;6.256;2023-10-09T03:57:00;28.87;;;12.70;;
3922;SDS011;1976;51.694;6.256;2023-10-09T03:59:26;21.87;;;11.10;;
3922;SDS011;1976;51.694;6.256;2023-10-09T04:01:56;27.47;;;14.77;;
3922;SDS011;1976;51.694;6.256;2023-10-09T04:04:23;30.37;;;13.23;;
3922;SDS011;1976;51.694;6.256;2023-10-09T04:06:50;31.07;;;14.23;;
3922;SDS011;1976;51.694;6.256;2023-10-09T04:09:19;25.23;;;14.97;;
3922;SDS011;1976;51.694;6.256;2023-10-09T04:11:45;28.57;;;14.23;;
3922;SDS011;1976;51.694;6.256;2023-10-09T04:14:22;27.13;;;13.70;;
3922;SDS011;1976;51.694;6.256;2023-10-09T04:17:00;27.53;;;13.70;;
3922;SDS011;1976;51.694;6.256;2023-10-09T04:19:45;27.50;;;12.80;;
3922;SDS011;1976;51.694;6.256;2023-10-09T04:22:16;37.73;;;13.77;;
3922;SDS011;1976;51.694;6.256;2023-10-09T04:24:51;23.07;;;12.83;;
3922;SDS011;1976;51.694;6.256;2023-10-09T04:27:17;21.00;;;11.27;;
3922;SDS011;1976;51.694;6.256;2023-10-09T04:29:51;25.60;;;12.47;;
3922;SDS011;1976;51.694;6.256;2023-10-09T04:32:19;25.23;;;13.13;;
3922;SDS011;1976;51.694;6.256;2023-10-09T04:34:45;25.93;;;12.47;;
3922;SDS011;1976;51.694;6.256;2023-10-09T04:37:14;32.13;;;14.80;;
3922;SDS011;1976;51.694;6.256;2023-10-09T04:39:43;26.17;;;13.73;;
3922;SDS011;1976;51.694;6.256;2023-10-09T04:42:12;22.23;;;12.60;;
3922;SDS011;1976;51.694;6.256;2023-10-09T04:44:45;24.70;;;13.20;;
3922;SDS011;1976;51.694;6.256;2023-10-09T04:47:30;22.50;;;13.60;;
3922;SDS011;1976;51.694;6.256;2023-10-09T04:50:04;18.30;;;12.53;;
3922;SDS011;1976;51.694;6.256;2023-10-09T04:52:35;20.10;;;11.33;;
3922;SDS011;1976;51.694;6.256;2023-10-09T04:55:00;20.87;;;12.67;;
3922;SDS011;1976;51.694;6.256;2023-10-09T04:57:34;27.87;;;13.87;;
3922;SDS011;1976;51.694;6.256;2023-10-09T05:00:07;29.07;;;13.47;;
3922;SDS011;1976;51.694;6.256;2023-10-09T05:05:30;23.80;;;12.50;;
3922;SDS011;1976;51.694;6.256;2023-10-09T05:08:12;25.23;;;13.60;;
3922;SDS011;1976;51.694;6.256;2023-10-09T05:16:10;22.43;;;11.33;;
3922;SDS011;1976;51.694;6.256;2023-10-09T05:18:52;19.23;;;10.97;;
3922;SDS011;1976;51.694;6.256;2023-10-09T05:21:34;23.10;;;13.17;;
3922;SDS011;1976;51.694;6.256;2023-10-09T05:24:02;26.03;;;12.57;;
3922;SDS011;1976;51.694;6.256;2023-10-09T05:26:37;22.50;;;13.10;;
3922;SDS011;1976;51.694;6.256;2023-10-09T05:29:10;22.07;;;13.17;;
3922;SDS011;1976;51.694;6.256;2023-10-09T05:31:50;29.40;;;13.30;;
3922;SDS011;1976;51.694;6.256;2023-10-09T05:34:32;20.13;;;10.80;;
3922;SDS011;1976;51.694;6.256;2023-10-09T05:37:16;21.63;;;11.90;;
3922;SDS011;1976;51.694;6.256;2023-10-09T05:39:45;17.90;;;10.33;;
3922;SDS011;1976;51.694;6.256;2023-10-09T05:42:43;21.50;;;13.20;;
3922;SDS011;1976;51.694;6.256;2023-10-09T05:45:11;29.63;;;13.80;;
3922;SDS011;1976;51.694;6.256;2023-10-09T05:47:47;25.33;;;13.70;;
3922;SDS011;1976;51.694;6.256;2023-10-09T05:50:24;29.20;;;12.10;;
3922;SDS011;1976;51.694;6.256;2023-10-09T05:52:51;19.50;;;11.10;;
3922;SDS011;1976;51.694;6.256;2023-10-09T05:55:22;33.53;;;13.13;;
3922;SDS011;1976;51.694;6.256;2023-10-09T05:57:49;23.00;;;13.30;;
3922;SDS011;1976;51.694;6.256;2023-10-09T06:00:36;17.63;;;12.03;;
3922;SDS011;1976;51.694;6.256;2023-10-09T06:03:20;18.10;;;10.60;;
3922;SDS011;1976;51.694;6.256;2023-10-09T06:05:49;18.27;;;10.20;;
3922;SDS011;1976;51.694;6.256;2023-10-09T06:08:22;22.50;;;13.37;;
3922;SDS011;1976;51.694;6.256;2023-10-09T06:11:12;16.57;;;9.37;;
3922;SDS011;1976;51.694;6.256;2023-10-09T06:14:00;27.73;;;14.80;;
3922;SDS011;1976;51.694;6.256;2023-10-09T06:16:37;25.33;;;12.30;;
3922;SDS011;1976;51.694;6.256;2023-10-09T06:19:11;23.40;;;12.80;;
3922;SDS011;1976;51.694;6.256;2023-10-09T06:21:51;22.83;;;13.17;;
3922;SDS011;1976;51.694;6.256;2023-10-09T06:24:20;21.73;;;12.10;;
3922;SDS011;1976;51.694;6.256;2023-10-09T06:26:48;20.90;;;13.67;;
3922;SDS011;1976;51.694;6.256;2023-10-09T06:29:23;26.40;;;14.27;;
3922;SDS011;1976;51.694;6.256;2023-10-09T06:32:07;21.27;;;12.70;;
3922;SDS011;1976;51.694;6.256;2023-10-09T06:34:58;28.97;;;13.90;;
3922;SDS011;1976;51.694;6.256;2023-10-09T06:38:03;26.13;;;13.90;;
3922;SDS011;1976;51.694;6.256;2023-10-09T06:40:48;25.87;;;14.63;;
3922;SDS011;1976;51.694;6.256;2023-10-09T06:43:47;27.23;;;13.60;;
3922;SDS011;1976;51.694;6.256;2023-10-09T06:46:18;28.77;;;15.20;;
3922;SDS011;1976;51.694;6.256;2023-10-09T06:48:49;25.10;;;15.50;;
3922;SDS011;1976;51.694;6.256;2023-10-09T06:51:24;23.17;;;13.30;;
3922;SDS011;1976;51.694;6.256;2023-10-09T06:53:53;22.97;;;14.40;;
3922;SDS011;1976;51.694;6.256;2023-10-09T06:58:58;15.23;;;10.93;;
3922;SDS011;1976;51.694;6.256;2023-10-09T07:01:39;22.03;;;10.40;;
3922;SDS011;1976;51.694;6.256;2023-10-09T07:04:10;22.57;;;12.30;;
3922;SDS011;1976;51.694;6.256;2023-10-09T07:07:06;16.47;;;11.57;;
3922;SDS011;1976;51.694;6.256;2023-10-09T07:09:49;25.03;;;12.93;;
3922;SDS011;1976;51.694;6.256;2023-10-09T07:12:34;25.57;;;13.60;;
3922;SDS011;1976;51.694;6.256;2023-10-09T07:15:07;32.23;;;14.43;;
3922;SDS011;1976;51.694;6.256;2023-10-09T07:17:33;22.50;;;11.17;;
3922;SDS011;1976;51.694;6.256;2023-10-09T07:19:59;19.90;;;10.40;;
3922;SDS011;1976;51.694;6.256;2023-10-09T07:23:00;22.77;;;13.87;;
3922;SDS011;1976;51.694;6.256;2023-10-09T07:25:38;20.47;;;11.60;;
3922;SDS011;1976;51.694;6.256;2023-10-09T07:28:20;34.50;;;13.87;;
3922;SDS011;1976;51.694;6.256;2023-10-09T07:31:19;21.67;;;12.70;;
3922;SDS011;1976;51.694;6.256;2023-10-09T07:33:52;21.37;;;10.27;;
3922;SDS011;1976;51.694;6.256;2023-10-09T07:36:25;25.63;;;13.27;;
3922;SDS011;1976;51.694;6.256;2023-10-09T07:38:59;23.70;;;12.30;;
3922;SDS011;1976;51.694;6.256;2023-10-09T07:41:38;28.23;;;11.17;;
3922;SDS011;1976;51.694;6.256;2023-10-09T07:44:09;24.30;;;12.87;;
3922;SDS011;1976;51.694;6.256;2023-10-09T07:46:44;19.63;;;14.03;;
3922;SDS011;1976;51.694;6.256;2023-10-09T07:49:38;30.63;;;13.90;;
3922;SDS011;1976;51.694;6.256;2023-10-09T07:52:04;21.03;;;12.53;;
3922;SDS011;1976;51.694;6.256;2023-10-09T07:54:31;25.10;;;12.73;;
3922;SDS011;1976;51.694;6.256;2023-10-09T07:56:57;21.87;;;13.63;;
3922;SDS011;1976;51.694;6.256;2023-10-09T07:59:33;28.13;;;14.50;;
3922;SDS011;1976;51.694;6.256;2023-10-09T08:02:06;27.10;;;14.23;;
3922;SDS011;1976;51.694;6.256;2023-10-09T08:04:38;21.17;;;14.43;;
3922;SDS011;1976;51.694;6.256;2023-10-09T08:07:13;19.53;;;12.03;;
3922;SDS011;1976;51.694;6.256;2023-10-09T08:09:53;24.43;;;12.47;;
3922;SDS011;1976;51.694;6.256;2023-10-09T08:12:37;25.60;;;14.77;;
3922;SDS011;1976;51.694;6.256;2023-10-09T08:15:09;23.57;;;13.03;;
3922;SDS011;1976;51.694;6.256;2023-10-09T08:17:57;19.73;;;10.17;;
3922;SDS011;1976;51.694;6.256;2023-10-09T08:20:34;20.97;;;9.90;;
3922;SDS011;1976;51.694;6.256;2023-10-09T08:23:16;23.70;;;12.70;;
3922;SDS011;1976;51.694;6.256;2023-10-09T08:26:01;12.87;;;6.57;;
3922;SDS011;1976;51.694;6.256;2023-10-09T08:28:43;18.90;;;12.17;;
3922;SDS011;1976;51.694;6.256;2023-10-09T08:31:14;11.37;;;7.73;;
3922;SDS011;1976;51.694;6.256;2023-10-09T08:34:09;12.17;;;5.80;;
3922;SDS011;1976;51.694;6.256;2023-10-09T08:36:48;17.50;;;9.07;;
3922;SDS011;1976;51.694;6.256;2023-10-09T08:39:17;14.60;;;7.30;;
3922;SDS011;1976;51.694;6.256;2023-10-09T08:41:55;24.00;;;13.60;;
3922;SDS011;1976;51.694;6.256;2023-10-09T08:44:26;28.63;;;15.40;;
3922;SDS011;1976;51.694;6.256;2023-10-09T08:46:54;24.87;;;15.90;;
3922;SDS011;1976;51.694;6.256;2023-10-09T08:49:22;27.63;;;15.10;;
3922;SDS011;1976;51.694;6.256;2023-10-09T08:51:48;37.73;;;16.57;;
3922;SDS011;1976;51.694;6.256;2023-10-09T08:54:17;28.03;;;14.17;;
3922;SDS011;1976;51.694;6.256;2023-10-09T08:56:43;21.97;;;14.07;;
3922;SDS011;1976;51.694;6.256;2023-10-09T08:59:17;23.53;;;12.87;;
3922;SDS011;1976;51.694;6.256;2023-10-09T09:01:47;23.47;;;9.60;;
3922;SDS011;1976;51.694;6.256;2023-10-09T09:07:03;13.57;;;9.10;;
3922;SDS011;1976;51.694;6.256;2023-10-09T09:09:30;25.73;;;10.30;;
3922;SDS011;1976;51.694;6.256;2023-10-09T09:11:57;27.40;;;12.73;;
3922;SDS011;1976;51.694;6.256;2023-10-09T09:14:46;23.37;;;12.60;;
3922;SDS011;1976;51.694;6.256;2023-10-09T09:17:10;28.27;;;14.03;;
3922;SDS011;1976;51.694;6.256;2023-10-09T09:19:55;30.50;;;12.87;;
3922;SDS011;1976;51.694;6.256;2023-10-09T09:22:22;31.13;;;13.47;;
3922;SDS011;1976;51.694;6.256;2023-10-09T09:24:58;24.87;;;13.97;;
3922;SDS011;1976;51.694;6.256;2023-10-09T09:27:44;20.83;;;12.93;;
3922;SDS011;1976;51.694;6.256;2023-10-09T09:30:34;19.77;;;11.30;;
3922;SDS011;1976;51.694;6.256;2023-10-09T09:33:19;17.53;;;11.07;;
3922;SDS011;1976;51.694;6.256;2023-10-09T09:36:01;28.67;;;12.53;;
3922;SDS011;1976;51.694;6.256;2023-10-09T09:38:29;19.70;;;11.30;;
3922;SDS011;1976;51.694;6.256;2023-10-09T09:41:06;20.07;;;11.40;;
3922;SDS011;1976;51.694;6.256;2023-10-09T09:43:33;23.70;;;12.23;;
3922;SDS011;1976;51.694;6.256;2023-10-09T09:46:01;29.10;;;11.63;;
3922;SDS011;1976;51.694;6.256;2023-10-09T09:48:32;24.03;;;13.10;;
3922;SDS011;1976;51.694;6.256;2023-10-09T09:51:04;21.10;;;11.70;;
3922;SDS011;1976;51.694;6.256;2023-10-09T09:53:33;42.40;;;13.37;;
3922;SDS011;1976;51.694;6.256;2023-10-09T09:56:00;28.00;;;13.70;;
3922;SDS011;1976;51.694;6.256;2023-10-09T09:58:27;25.97;;;11.23;;
3922;SDS011;1976;51.694;6.256;2023-10-09T10:01:01;23.07;;;13.40;;
3922;SDS011;1976;51.694;6.256;2023-10-09T10:03:50;23.87;;;13.30;;
3922;SDS011;1976;51.694;6.256;2023-10-09T10:06:21;23.33;;;13.70;;
3922;SDS011;1976;51.694;6.256;2023-10-09T10:08:51;22.13;;;13.20;;
3922;SDS011;1976;51.694;6.256;2023-10-09T10:14:18;23.40;;;12.87;;
3922;SDS011;1976;51.694;6.256;2023-10-09T10:20:05;21.87;;;13.33;;
3922;SDS011;1976;51.694;6.256;2023-10-09T10:22:43;27.00;;;13.63;;
3922;SDS011;1976;51.694;6.256;2023-10-09T10:25:34;30.60;;;13.40;;
3922;SDS011;1976;51.694;6.256;2023-10-09T10:28:15;17.17;;;9.77;;
3922;SDS011;1976;51.694;6.256;2023-10-09T10:30:53;23.60;;;13.40;;
3922;SDS011;1976;51.694;6.256;2023-10-09T10:33:20;19.37;;;12.63;;
3922;SDS011;1976;51.694;6.256;2023-10-09T10:35:48;29.33;;;12.23;;
3922;SDS011;1976;51.694;6.256;2023-10-09T10:38:30;23.07;;;12.10;;
3922;SDS011;1976;51.694;6.256;2023-10-09T10:41:08;27.60;;;13.50;;
3922;SDS011;1976;51.694;6.256;2023-10-09T10:43:36;19.30;;;11.87;;
3922;SDS011;1976;51.694;6.256;2023-10-09T10:46:18;18.77;;;12.43;;
3922;SDS011;1976;51.694;6.256;2023-10-09T10:49:06;36.13;;;12.13;;
3922;SDS011;1976;51.694;6.256;2023-10-09T10:51:38;41.00;;;14.93;;
3922;SDS011;1976;51.694;6.256;2023-10-09T10:54:04;38.07;;;15.30;;
3922;SDS011;1976;51.694;6.256;2023-10-09T10:56:49;27.40;;;15.13;;
3922;SDS011;1976;51.694;6.256;2023-10-09T10:59:17;25.60;;;12.33;;
3922;SDS011;1976;51.694;6.256;2023-10-09T11:01:50;28.33;;;14.40;;
3922;SDS011;1976;51.694;6.256;2023-10-09T11:04:27;22.17;;;13.03;;
3922;SDS011;1976;51.694;6.256;2023-10-09T11:06:57;28.47;;;14.20;;
3922;SDS011;1976;51.694;6.256;2023-10-09T11:09:44;22.83;;;13.83;;
3922;SDS011;1976;51.694;6.256;2023-10-09T11:15:10;17.77;;;11.07;;
3922;SDS011;1976;51.694;6.256;2023-10-09T11:18:00;24.70;;;12.33;;
3922;SDS011;1976;51.694;6.256;2023-10-09T11:20:41;19.90;;;12.20;;
3922;SDS011;1976;51.694;6.256;2023-10-09T11:23:21;22.63;;;11.53;;
3922;SDS011;1976;51.694;6.256;2023-10-09T11:26:00;18.83;;;11.33;;
3922;SDS011;1976;51.694;6.256;2023-10-09T11:28:46;19.60;;;11.80;;
3922;SDS011;1976;51.694;6.256;2023-10-09T11:31:38;25.00;;;11.70;;
3922;SDS011;1976;51.694;6.256;2023-10-09T11:34:08;19.33;;;10.83;;
3922;SDS011;1976;51.694;6.256;2023-10-09T11:37:01;20.33;;;11.93;;
3922;SDS011;1976;51.694;6.256;2023-10-09T11:39:37;18.53;;;11.70;;
3922;SDS011;1976;51.694;6.256;2023-10-09T11:42:16;17.97;;;11.90;;
3922;SDS011;1976;51.694;6.256;2023-10-09T11:45:03;19.80;;;11.20;;
3922;SDS011;1976;51.694;6.256;2023-10-09T11:47:47;17.90;;;9.20;;
3922;SDS011;1976;51.694;6.256;2023-10-09T11:50:38;15.73;;;10.33;;
3922;SDS011;1976;51.694;6.256;2023-10-09T11:53:19;17.33;;;9.87;;
3922;SDS011;1976;51.694;6.256;2023-10-09T11:55:48;27.07;;;11.90;;
3922;SDS011;1976;51.694;6.256;2023-10-09T11:58:15;21.70;;;10.70;;
3922;SDS011;1976;51.694;6.256;2023-10-09T12:00:50;20.63;;;9.87;;
3922;SDS011;1976;51.694;6.256;2023-10-09T12:03:16;18.40;;;10.80;;
3922;SDS011;1976;51.694;6.256;2023-10-09T12:05:46;20.33;;;10.53;;
3922;SDS011;1976;51.694;6.256;2023-10-09T12:08:12;23.80;;;10.97;;
3922;SDS011;1976;51.694;6.256;2023-10-09T12:10:40;17.90;;;10.50;;
3922;SDS011;1976;51.694;6.256;2023-10-09T12:13:07;20.50;;;10.67;;
3922;SDS011;1976;51.694;6.256;2023-10-09T12:15:33;22.30;;;11.90;;
3922;SDS011;1976;51.694;6.256;2023-10-09T12:18:05;21.57;;;11.00;;
3922;SDS011;1976;51.694;6.256;2023-10-09T12:20:39;23.53;;;10.30;;
3922;SDS011;1976;51.694;6.256;2023-10-09T12:23:15;28.00;;;11.30;;
3922;SDS011;1976;51.694;6.256;2023-10-09T12:25:40;25.67;;;11.07;;
3922;SDS011;1976;51.694;6.256;2023-10-09T12:28:09;34.83;;;11.60;;
3922;SDS011;1976;51.694;6.256;2023-10-09T12:30:37;20.63;;;11.27;;
3922;SDS011;1976;51.694;6.256;2023-10-09T12:33:06;20.30;;;9.20;;
3922;SDS011;1976;51.694;6.256;2023-10-09T12:35:37;25.47;;;9.50;;
3922;SDS011;1976;51.694;6.256;2023-10-09T12:38:03;23.87;;;8.50;;
3922;SDS011;1976;51.694;6.256;2023-10-09T12:40:37;15.93;;;9.20;;
3922;SDS011;1976;51.694;6.256;2023-10-09T12:43:08;16.73;;;9.80;;
3922;SDS011;1976;51.694;6.256;2023-10-09T12:45:42;17.83;;;8.33;;
3922;SDS011;1976;51.694;6.256;2023-10-09T12:48:07;18.57;;;7.27;;
3922;SDS011;1976;51.694;6.256;2023-10-09T12:50:37;14.50;;;8.20;;
3922;SDS011;1976;51.694;6.256;2023-10-09T12:53:09;15.80;;;7.97;;
3922;SDS011;1976;51.694;6.256;2023-10-09T12:55:36;18.97;;;8.40;;
3922;SDS011;1976;51.694;6.256;2023-10-09T12:58:05;12.83;;;7.50;;
3922;SDS011;1976;51.694;6.256;2023-10-09T13:00:33;17.27;;;7.90;;
3922;SDS011;1976;51.694;6.256;2023-10-09T13:03:02;16.77;;;8.43;;
3922;SDS011;1976;51.694;6.256;2023-10-09T13:05:38;12.33;;;7.67;;
3922;SDS011;1976;51.694;6.256;2023-10-09T13:08:16;19.50;;;8.70;;
3922;SDS011;1976;51.694;6.256;2023-10-09T13:10:47;21.60;;;8.20;;
3922;SDS011;1976;51.694;6.256;2023-10-09T13:13:23;18.30;;;7.73;;
3922;SDS011;1976;51.694;6.256;2023-10-09T13:15:49;18.40;;;7.73;;
3922;SDS011;1976;51.694;6.256;2023-10-09T13:18:14;41.87;;;9.40;;
3922;SDS011;1976;51.694;6.256;2023-10-09T13:20:40;12.00;;;7.80;;
3922;SDS011;1976;51.694;6.256;2023-10-09T13:23:06;12.00;;;6.90;;
3922;SDS011;1976;51.694;6.256;2023-10-09T13:25:31;12.83;;;7.73;;
3922;SDS011;1976;51.694;6.256;2023-10-09T13:28:04;24.77;;;8.13;;
3922;SDS011;1976;51.694;6.256;2023-10-09T13:30:30;17.33;;;7.80;;
3922;SDS011;1976;51.694;6.256;2023-10-09T13:33:04;25.27;;;8.30;;
3922;SDS011;1976;51.694;6.256;2023-10-09T13:35:30;13.40;;;7.10;;
3922;SDS011;1976;51.694;6.256;2023-10-09T13:38:03;16.67;;;8.03;;
3922;SDS011;1976;51.694;6.256;2023-10-09T13:40:33;15.80;;;8.30;;
3922;SDS011;1976;51.694;6.256;2023-10-09T13:43:00;16.03;;;7.03;;
3922;SDS011;1976;51.694;6.256;2023-10-09T13:45:26;14.77;;;8.20;;
3922;SDS011;1976;51.694;6.256;2023-10-09T13:47:53;13.50;;;7.33;;
3922;SDS011;1976;51.694;6.256;2023-10-09T13:50:20;14.13;;;7.23;;
3922;SDS011;1976;51.694;6.256;2023-10-09T13:52:48;20.33;;;7.53;;
3922;SDS011;1976;51.694;6.256;2023-10-09T13:55:13;21.57;;;7.97;;
3922;SDS011;1976;51.694;6.256;2023-10-09T13:57:45;12.67;;;7.37;;
3922;SDS011;1976;51.694;6.256;2023-10-09T14:00:13;15.40;;;7.50;;
3922;SDS011;1976;51.694;6.256;2023-10-09T14:02:57;15.93;;;7.63;;
3922;SDS011;1976;51.694;6.256;2023-10-09T14:05:26;13.30;;;7.63;;
3922;SDS011;1976;51.694;6.256;2023-10-09T14:07:52;23.30;;;7.07;;
3922;SDS011;1976;51.694;6.256;2023-10-09T14:10:22;17.63;;;7.00;;
3922;SDS011;1976;51.694;6.256;2023-10-09T14:12:51;14.90;;;7.20;;
3922;SDS011;1976;51.694;6.256;2023-10-09T14:15:19;12.13;;;6.73;;
3922;SDS011;1976;51.694;6.256;2023-10-09T14:17:45;16.13;;;7.63;;
3922;SDS011;1976;51.694;6.256;2023-10-09T14:20:20;15.70;;;5.83;;
3922;SDS011;1976;51.694;6.256;2023-10-09T14:22:56;18.10;;;8.83;;
3922;SDS011;1976;51.694;6.256;2023-10-09T14:25:23;12.33;;;7.53;;
3922;SDS011;1976;51.694;6.256;2023-10-09T14:27:48;10.53;;;6.70;;
3922;SDS011;1976;51.694;6.256;2023-10-09T14:30:17;18.97;;;7.37;;
3922;SDS011;1976;51.694;6.256;2023-10-09T14:32:55;26.40;;;7.60;;
3922;SDS011;1976;51.694;6.256;2023-10-09T14:35:21;14.80;;;7.77;;
3922;SDS011;1976;51.694;6.256;2023-10-09T14:37:55;17.07;;;7.93;;
3922;SDS011;1976;51.694;6.256;2023-10-09T14:40:21;14.80;;;7.47;;
3922;SDS011;1976;51.694;6.256;2023-10-09T14:42:54;21.63;;;7.47;;
3922;SDS011;1976;51.694;6.256;2023-10-09T14:45:26;16.37;;;7.23;;
3922;SDS011;1976;51.694;6.256;2023-10-09T14:47:52;15.20;;;7.07;;
3922;SDS011;1976;51.694;6.256;2023-10-09T14:50:19;14.77;;;7.63;;
3922;SDS011;1976;51.694;6.256;2023-10-09T14:52:47;14.50;;;6.97;;
3922;SDS011;1976;51.694;6.256;2023-10-09T14:55:15;17.30;;;8.10;;
3922;SDS011;1976;51.694;6.256;2023-10-09T14:57:46;23.37;;;7.20;;
3922;SDS011;1976;51.694;6.256;2023-10-09T15:00:17;11.37;;;6.40;;
3922;SDS011;1976;51.694;6.256;2023-10-09T15:02:48;46.57;;;7.90;;
3922;SDS011;1976;51.694;6.256;2023-10-09T15:05:16;16.00;;;7.03;;
3922;SDS011;1976;51.694;6.256;2023-10-09T15:07:41;16.33;;;5.70;;
3922;SDS011;1976;51.694;6.256;2023-10-09T15:10:07;17.83;;;6.60;;
3922;SDS011;1976;51.694;6.256;2023-10-09T15:12:34;17.93;;;5.90;;
3922;SDS011;1976;51.694;6.256;2023-10-09T15:15:05;13.70;;;5.10;;
3922;SDS011;1976;51.694;6.256;2023-10-09T15:17:42;9.83;;;4.90;;
3922;SDS011;1976;51.694;6.256;2023-10-09T15:20:10;25.87;;;5.50;;
3922;SDS011;1976;51.694;6.256;2023-10-09T15:22:41;18.20;;;5.50;;
3922;SDS011;1976;51.694;6.256;2023-10-09T15:25:07;15.07;;;5.47;;
3922;SDS011;1976;51.694;6.256;2023-10-09T15:27:34;14.90;;;5.57;;
3922;SDS011;1976;51.694;6.256;2023-10-09T15:29:59;13.57;;;6.90;;
3922;SDS011;1976;51.694;6.256;2023-10-09T15:32:25;13.00;;;4.60;;
3922;SDS011;1976;51.694;6.256;2023-10-09T15:34:57;12.83;;;5.73;;
3922;SDS011;1976;51.694;6.256;2023-10-09T15:37:23;14.80;;;5.77;;
3922;SDS011;1976;51.694;6.256;2023-10-09T15:39:48;17.57;;;5.67;;
3922;SDS011;1976;51.694;6.256;2023-10-09T15:42:15;12.40;;;5.63;;
3922;SDS011;1976;51.694;6.256;2023-10-09T15:44:41;85.70;;;7.70;;
3922;SDS011;1976;51.694;6.256;2023-10-09T15:47:07;9.87;;;5.30;;
3922;SDS011;1976;51.694;6.256;2023-10-09T15:49:33;13.80;;;5.70;;
3922;SDS011;1976;51.694;6.256;2023-10-09T15:52:03;11.90;;;5.30;;